Time;durP1;ratioP1;P1;durP2;ratioP2;P2;SDS_P1;SDS_P2;PMS_P1;PMS_P2;Temp;Humidity;BMP_temperature;BMP_pressure;BME280_temperature;BME280_humidity;BME280_pressure;Samples;Min_cycle;Max_cycle;Signal;HPM_P1;HPM_P2
2024/01/20 00:02:04;;;;;;;17.57;7.00;;;0.70;99.90;;;;;;5055482;28;20268;-59
2024/01/20 00:04:30;;;;;;;11.57;6.97;;;0.90;99.90;;;;;;5059005;28;20344;-60
2024/01/20 00:06:55;;;;;;;12.63;6.33;;;1.00;99.90;;;;;;5044314;28;20228;-53
2024/01/20 00:09:21;;;;;;;12.50;6.00;;;1.00;99.90;;;;;;5042545;28;20200;-52
2024/01/20 00:11:46;;;;;;;9.57;5.63;;;1.00;99.90;;;;;;5045385;28;21023;-52
2024/01/20 00:14:12;;;;;;;12.20;6.37;;;1.00;99.90;;;;;;5043563;28;20220;-63
2024/01/20 00:16:38;;;;;;;9.33;6.17;;;1.00;99.90;;;;;;5055186;28;20730;-53
2024/01/20 00:19:03;;;;;;;9.53;5.90;;;1.20;99.90;;;;;;5046260;28;20234;-54
2024/01/20 00:21:30;;;;;;;9.33;6.80;;;1.30;99.90;;;;;;5043003;28;20233;-53
2024/01/20 00:23:55;;;;;;;5.70;4.20;;;1.10;99.90;;;;;;5042922;28;20204;-54
2024/01/20 00:26:21;;;;;;;10.20;6.70;;;1.00;99.90;;;;;;5043081;28;20224;-52
2024/01/20 00:28:47;;;;;;;12.20;6.73;;;0.90;99.90;;;;;;5032272;28;20293;-65
2024/01/20 00:31:13;;;;;;;9.67;6.10;;;1.10;99.90;;;;;;5053577;28;20273;-69
2024/01/20 00:33:38;;;;;;;11.00;6.33;;;0.90;99.90;;;;;;5051294;28;20208;-61
2024/01/20 00:36:04;;;;;;;10.80;6.83;;;0.70;99.90;;;;;;5047166;28;20212;-61
2024/01/20 00:38:30;;;;;;;7.63;5.07;;;0.70;99.90;;;;;;5048323;28;20204;-67
2024/01/20 00:40:56;;;;;;;9.87;5.83;;;0.60;99.90;;;;;;5039682;28;20573;-62
2024/01/20 00:43:22;;;;;;;11.33;5.50;;;0.40;99.90;;;;;;5036550;28;20287;-62
2024/01/20 00:45:48;;;;;;;11.77;6.87;;;0.50;99.90;;;;;;5041540;28;20725;-65
2024/01/20 00:48:13;;;;;;;8.40;5.17;;;0.40;99.90;;;;;;5043339;28;20207;-59
2024/01/20 00:50:40;;;;;;;11.77;6.27;;;0.40;99.90;;;;;;5048543;28;20214;-62
2024/01/20 00:53:05;;;;;;;6.67;5.53;;;0.50;99.90;;;;;;5033080;28;20577;-51
2024/01/20 00:55:31;;;;;;;11.13;6.77;;;0.30;99.90;;;;;;5044947;28;20205;-51
2024/01/20 00:57:56;;;;;;;12.13;6.37;;;0.30;99.90;;;;;;5053008;28;20243;-52
2024/01/20 01:00:22;;;;;;;12.47;6.63;;;0.30;99.90;;;;;;5055128;28;20194;-53
2024/01/20 01:02:48;;;;;;;12.70;5.70;;;0.30;99.90;;;;;;5050560;28;20204;-60
2024/01/20 01:05:14;;;;;;;15.00;5.23;;;0.40;99.90;;;;;;5043952;28;20224;-60
2024/01/20 01:07:40;;;;;;;11.87;7.07;;;0.40;99.90;;;;;;5045863;28;20256;-63
2024/01/20 01:10:06;;;;;;;9.27;5.63;;;0.30;99.90;;;;;;5032977;28;20191;-50
2024/01/20 01:12:32;;;;;;;8.77;6.07;;;0.30;99.90;;;;;;5030307;28;20199;-51
2024/01/20 01:14:58;;;;;;;13.60;7.47;;;0.20;99.90;;;;;;5051468;28;20227;-57
2024/01/20 01:17:24;;;;;;;9.57;6.40;;;0.30;99.90;;;;;;5051966;28;20302;-58
2024/01/20 01:19:49;;;;;;;13.20;7.30;;;0.20;99.90;;;;;;5032097;28;20328;-56
2024/01/20 01:22:15;;;;;;;10.03;6.43;;;0.30;99.90;;;;;;5032135;28;20211;-62
2024/01/20 01:24:40;;;;;;;10.80;6.60;;;0.20;99.90;;;;;;5051441;28;20251;-62
2024/01/20 01:27:06;;;;;;;10.53;6.13;;;0.10;99.90;;;;;;5051534;28;20267;-62
2024/01/20 01:29:32;;;;;;;14.33;7.40;;;0.20;99.90;;;;;;5029390;28;20345;-62
2024/01/20 01:31:57;;;;;;;11.97;7.23;;;0.20;99.90;;;;;;5032495;28;20208;-62
2024/01/20 01:34:23;;;;;;;7.33;6.43;;;0.40;99.90;;;;;;5053063;28;20201;-62
2024/01/20 01:36:49;;;;;;;14.10;8.20;;;0.30;99.90;;;;;;5051278;28;20203;-62
2024/01/20 01:39:18;;;;;;;14.07;8.03;;;0.20;99.90;;;;;;5057615;28;20280;-63
2024/01/20 01:41:44;;;;;;;9.27;7.00;;;0.20;99.90;;;;;;5037142;28;20803;-53
2024/01/20 01:44:10;;;;;;;9.80;6.90;;;0.20;99.90;;;;;;5041990;28;20681;-52
2024/01/20 01:46:36;;;;;;;14.83;7.77;;;0.30;99.90;;;;;;5045249;28;20225;-52
2024/01/20 01:49:02;;;;;;;14.13;7.53;;;0.20;99.90;;;;;;5050059;28;20220;-58
2024/01/20 01:51:28;;;;;;;10.27;6.47;;;0.30;99.90;;;;;;5048691;28;20203;-52
2024/01/20 01:53:54;;;;;;;10.27;7.47;;;0.40;99.90;;;;;;5053289;28;20374;-62
2024/01/20 01:56:20;;;;;;;10.23;6.87;;;0.60;99.90;;;;;;5041503;28;20187;-53
2024/01/20 01:58:46;;;;;;;12.77;7.73;;;0.40;99.90;;;;;;5047082;28;20245;-53
2024/01/20 02:01:11;;;;;;;16.00;8.30;;;0.30;99.90;;;;;;5057027;28;20223;-54
2024/01/20 02:03:38;;;;;;;12.87;7.93;;;0.20;99.90;;;;;;5052133;28;20962;-51
2024/01/20 02:06:05;;;;;;;11.43;7.10;;;0.20;99.90;;;;;;5030294;28;20224;-54
2024/01/20 02:08:31;;;;;;;13.43;7.87;;;0.30;99.90;;;;;;5050931;28;20460;-53
2024/01/20 02:10:57;;;;;;;14.73;8.60;;;0.30;99.90;;;;;;5035926;28;20673;-53
2024/01/20 02:13:23;;;;;;;11.03;8.60;;;0.30;99.90;;;;;;5053408;28;20200;-51
2024/01/20 02:15:49;;;;;;;11.27;8.47;;;0.30;99.90;;;;;;5039067;28;20205;-52
2024/01/20 02:18:15;;;;;;;12.67;6.77;;;0.30;99.90;;;;;;5048140;28;20209;-52
2024/01/20 02:20:41;;;;;;;9.60;7.50;;;0.20;99.90;;;;;;5037364;28;20203;-52
2024/01/20 02:23:06;;;;;;;6.63;5.43;;;0.20;99.90;;;;;;5045651;28;20215;-52
2024/01/20 02:25:32;;;;;;;15.80;8.47;;;0.10;99.90;;;;;;5053216;28;20635;-51
2024/01/20 02:27:58;;;;;;;13.83;8.33;;;0.20;99.90;;;;;;5043780;28;20237;-53
2024/01/20 02:30:23;;;;;;;11.97;7.87;;;0.20;99.90;;;;;;5042999;28;20204;-52
2024/01/20 02:32:49;;;;;;;12.90;8.97;;;0.20;99.90;;;;;;5045800;28;20199;-50
2024/01/20 02:35:16;;;;;;;10.63;8.17;;;0.20;99.90;;;;;;5048169;28;20252;-51
2024/01/20 02:37:41;;;;;;;11.73;7.07;;;0.20;99.90;;;;;;5035417;28;20209;-52
2024/01/20 02:40:07;;;;;;;14.03;8.63;;;0.20;99.90;;;;;;5052913;28;20546;-51
2024/01/20 02:42:33;;;;;;;11.17;7.93;;;0.30;99.90;;;;;;5035349;28;20285;-63
2024/01/20 02:44:58;;;;;;;13.13;8.03;;;0.20;99.90;;;;;;5031576;28;20784;-53
2024/01/20 02:47:24;;;;;;;12.33;8.90;;;0.40;99.90;;;;;;5035270;28;20210;-52
2024/01/20 02:49:49;;;;;;;17.33;7.77;;;0.50;99.90;;;;;;5057814;28;20205;-51
2024/01/20 02:52:15;;;;;;;14.17;9.13;;;0.40;99.90;;;;;;5047304;28;20192;-51
2024/01/20 02:54:40;;;;;;;8.60;7.33;;;0.30;99.90;;;;;;5056903;28;20226;-51
2024/01/20 02:57:06;;;;;;;14.17;8.50;;;0.30;99.90;;;;;;5048986;28;20208;-53
2024/01/20 02:59:31;;;;;;;10.30;7.33;;;0.30;99.90;;;;;;5050772;28;20278;-52
2024/01/20 03:01:58;;;;;;;15.80;8.40;;;0.30;99.90;;;;;;5051569;28;20719;-52
2024/01/20 03:04:23;;;;;;;12.37;8.03;;;0.30;99.90;;;;;;5053592;28;20204;-52
2024/01/20 03:06:49;;;;;;;14.73;8.50;;;0.30;99.90;;;;;;5045627;28;20583;-51
2024/01/20 03:09:14;;;;;;;10.77;7.50;;;0.40;99.90;;;;;;5057062;28;20205;-52
2024/01/20 03:11:41;;;;;;;10.73;8.07;;;0.30;99.90;;;;;;5051493;28;20206;-52
2024/01/20 03:14:08;;;;;;;14.13;8.33;;;0.30;99.90;;;;;;5045761;28;20192;-52
2024/01/20 03:16:33;;;;;;;11.83;7.77;;;0.30;99.90;;;;;;5042741;28;20213;-51
2024/01/20 03:18:59;;;;;;;13.20;8.90;;;0.30;99.90;;;;;;5048631;28;20588;-51
2024/01/20 03:21:24;;;;;;;11.37;8.40;;;0.30;99.90;;;;;;5046727;28;20338;-53
2024/01/20 03:23:53;;;;;;;12.87;9.20;;;0.40;99.90;;;;;;5048767;28;20770;-51
2024/01/20 03:26:19;;;;;;;13.70;7.53;;;0.50;99.90;;;;;;5037091;28;20829;-51
2024/01/20 03:28:44;;;;;;;13.40;8.07;;;0.50;99.90;;;;;;5039119;28;20203;-52
2024/01/20 03:31:10;;;;;;;15.00;10.23;;;0.40;99.90;;;;;;5038597;28;20205;-51
2024/01/20 03:33:35;;;;;;;15.30;9.03;;;0.40;99.90;;;;;;5047069;28;20340;-52
2024/01/20 03:36:01;;;;;;;14.87;7.60;;;0.40;99.90;;;;;;5059081;28;20582;-52
2024/01/20 03:38:26;;;;;;;11.40;8.17;;;0.50;99.90;;;;;;5050759;28;20272;-52
2024/01/20 03:40:52;;;;;;;13.77;8.70;;;0.40;99.90;;;;;;5041991;28;20278;-52
2024/01/20 03:43:17;;;;;;;14.73;8.23;;;0.40;99.90;;;;;;5056326;28;20573;-52
2024/01/20 03:45:43;;;;;;;13.17;9.33;;;0.40;99.90;;;;;;5034285;28;20339;-52
2024/01/20 03:48:09;;;;;;;13.70;8.13;;;0.40;99.90;;;;;;5050097;28;20604;-52
2024/01/20 03:50:35;;;;;;;12.97;9.30;;;0.40;99.90;;;;;;5042418;28;20266;-52
2024/01/20 03:53:01;;;;;;;15.33;10.17;;;0.40;99.90;;;;;;5030865;28;20819;-52
2024/01/20 03:55:26;;;;;;;14.00;9.13;;;0.30;99.90;;;;;;5036331;28;20757;-52
2024/01/20 03:57:52;;;;;;;11.13;8.57;;;0.40;99.90;;;;;;5041532;28;20210;-52
2024/01/20 04:00:17;;;;;;;14.37;9.60;;;0.60;99.90;;;;;;5048228;28;20211;-52
2024/01/20 04:02:43;;;;;;;15.43;8.37;;;0.70;99.90;;;;;;5057934;28;20236;-52
2024/01/20 04:05:08;;;;;;;12.63;8.70;;;0.70;99.90;;;;;;5056683;28;20233;-51
2024/01/20 04:07:34;;;;;;;13.73;9.37;;;0.80;99.90;;;;;;5049810;28;20228;-51
2024/01/20 04:09:59;;;;;;;12.90;7.97;;;0.80;99.90;;;;;;5050343;28;20223;-52
2024/01/20 04:12:25;;;;;;;11.80;8.67;;;0.80;99.90;;;;;;5047286;28;20196;-52
2024/01/20 04:14:50;;;;;;;9.67;7.53;;;0.70;99.90;;;;;;5051356;28;20607;-52
2024/01/20 04:17:16;;;;;;;12.67;8.77;;;0.70;99.90;;;;;;5045711;28;20684;-52
2024/01/20 04:19:41;;;;;;;14.07;8.67;;;0.80;99.90;;;;;;5043845;28;20855;-52
2024/01/20 04:22:07;;;;;;;15.93;9.93;;;0.60;99.90;;;;;;5051850;28;20256;-51
2024/01/20 04:24:32;;;;;;;12.70;8.33;;;0.70;99.90;;;;;;5044782;28;20846;-52
2024/01/20 04:26:58;;;;;;;11.17;7.13;;;0.80;99.90;;;;;;5049490;28;20216;-52
2024/01/20 04:29:23;;;;;;;14.47;9.13;;;0.70;99.90;;;;;;5051469;28;20215;-52
2024/01/20 04:31:49;;;;;;;12.83;9.77;;;0.60;99.90;;;;;;5051423;28;20648;-51
2024/01/20 04:34:14;;;;;;;15.77;9.27;;;0.60;99.90;;;;;;5043842;28;20209;-51
2024/01/20 04:36:40;;;;;;;10.40;8.07;;;0.70;99.90;;;;;;5042245;28;20210;-51
2024/01/20 04:39:05;;;;;;;19.20;9.73;;;0.70;99.90;;;;;;5051330;28;20204;-52
2024/01/20 04:41:31;;;;;;;14.43;9.30;;;0.60;99.90;;;;;;5044749;28;20203;-52
2024/01/20 04:43:56;;;;;;;15.60;9.07;;;0.60;99.90;;;;;;5028183;28;20191;-52
2024/01/20 04:46:22;;;;;;;17.20;9.47;;;0.60;99.90;;;;;;5051579;28;20238;-51
2024/01/20 04:48:47;;;;;;;17.87;9.60;;;0.60;99.90;;;;;;5053148;28;20206;-51
2024/01/20 04:51:13;;;;;;;16.37;9.77;;;0.60;99.90;;;;;;5043743;28;20600;-51
2024/01/20 04:53:38;;;;;;;13.67;10.33;;;0.50;99.90;;;;;;5051183;28;22677;-51
2024/01/20 04:56:05;;;;;;;12.60;8.97;;;0.50;99.90;;;;;;5033545;28;20588;-52
2024/01/20 04:58:31;;;;;;;12.13;9.53;;;0.60;99.90;;;;;;5047937;28;20190;-52
2024/01/20 05:00:56;;;;;;;16.93;10.63;;;0.60;99.90;;;;;;5052274;28;20339;-52
2024/01/20 05:03:22;;;;;;;13.73;9.43;;;0.60;99.90;;;;;;5030309;28;20282;-52
2024/01/20 05:05:47;;;;;;;13.90;9.67;;;0.70;99.90;;;;;;5049404;28;20262;-52
2024/01/20 05:08:13;;;;;;;15.40;9.83;;;0.60;99.90;;;;;;5041713;28;20276;-52
2024/01/20 05:10:38;;;;;;;10.40;8.17;;;0.40;99.90;;;;;;5049943;28;20227;-52
2024/01/20 05:13:04;;;;;;;13.00;9.97;;;0.60;99.90;;;;;;5055040;28;20304;-52
2024/01/20 05:15:32;;;;;;;12.97;10.03;;;0.50;99.90;;;;;;5058901;28;20703;-52
2024/01/20 05:17:58;;;;;;;14.83;10.00;;;0.50;99.90;;;;;;5044374;28;20211;-52
2024/01/20 05:20:24;;;;;;;14.03;9.73;;;0.50;99.90;;;;;;5054646;28;20260;-53
2024/01/20 05:22:49;;;;;;;17.13;9.90;;;0.40;99.90;;;;;;5052944;28;20206;-52
2024/01/20 05:25:15;;;;;;;16.07;10.27;;;0.40;99.90;;;;;;5033647;28;20247;-52
2024/01/20 05:27:41;;;;;;;14.90;9.80;;;0.50;99.90;;;;;;5050230;28;20196;-52
2024/01/20 05:30:07;;;;;;;15.63;9.90;;;0.60;99.90;;;;;;5055378;28;20342;-52
2024/01/20 05:32:33;;;;;;;14.90;9.57;;;0.60;99.90;;;;;;5056959;28;20263;-52
2024/01/20 05:34:59;;;;;;;13.53;9.50;;;0.70;99.90;;;;;;5052305;28;20199;-53
2024/01/20 05:37:24;;;;;;;17.33;7.90;;;0.80;99.90;;;;;;5053603;28;20200;-51
2024/01/20 05:39:51;;;;;;;14.00;9.07;;;0.80;99.90;;;;;;5055464;28;20217;-53
2024/01/20 05:42:17;;;;;;;13.63;9.63;;;0.70;99.90;;;;;;5042600;28;20196;-65
2024/01/20 05:44:42;;;;;;;11.90;9.07;;;0.80;99.90;;;;;;5047088;28;20229;-59
2024/01/20 05:47:08;;;;;;;11.23;9.77;;;0.90;99.90;;;;;;5049298;28;20261;-52
2024/01/20 05:49:33;;;;;;;17.77;10.67;;;1.00;99.90;;;;;;5037375;28;20260;-53
2024/01/20 05:51:59;;;;;;;17.93;11.27;;;1.10;99.90;;;;;;5045557;28;20620;-65
2024/01/20 05:54:24;;;;;;;8.77;6.50;;;1.00;99.90;;;;;;5052942;28;20208;-52
2024/01/20 05:56:50;;;;;;;14.97;9.40;;;1.10;99.90;;;;;;5057300;28;20211;-52
2024/01/20 05:59:15;;;;;;;18.33;10.07;;;1.10;99.90;;;;;;5052399;28;20257;-52
2024/01/20 06:01:41;;;;;;;16.83;10.40;;;0.80;99.90;;;;;;5051412;28;20606;-52
2024/01/20 06:04:06;;;;;;;13.93;9.37;;;0.80;99.90;;;;;;5054533;28;20200;-52
2024/01/20 06:06:32;;;;;;;11.57;8.77;;;0.80;99.90;;;;;;5050832;28;20913;-52
2024/01/20 06:08:58;;;;;;;16.93;9.60;;;0.90;99.90;;;;;;5034278;28;20195;-52
2024/01/20 06:11:24;;;;;;;16.87;10.57;;;0.80;99.90;;;;;;5046295;28;20680;-51
2024/01/20 06:13:50;;;;;;;17.87;10.97;;;0.90;99.90;;;;;;5054565;28;20202;-52
2024/01/20 06:16:15;;;;;;;12.83;8.93;;;0.80;99.90;;;;;;5053070;28;20251;-52
2024/01/20 06:18:41;;;;;;;12.93;9.60;;;0.80;99.90;;;;;;5050052;28;20239;-52
2024/01/20 06:21:06;;;;;;;13.50;9.73;;;0.80;99.90;;;;;;5054238;28;20199;-52
2024/01/20 06:23:32;;;;;;;13.83;9.30;;;0.80;99.90;;;;;;5059525;28;20573;-52
2024/01/20 06:25:59;;;;;;;16.90;8.87;;;0.70;99.90;;;;;;5054192;28;20233;-52
2024/01/20 06:28:25;;;;;;;19.07;10.20;;;0.70;99.90;;;;;;5043854;28;20275;-52
2024/01/20 06:30:51;;;;;;;12.57;8.47;;;0.80;99.90;;;;;;5040199;28;20212;-51
2024/01/20 06:33:17;;;;;;;15.33;9.70;;;0.80;99.90;;;;;;5056842;28;20202;-51
2024/01/20 06:35:42;;;;;;;14.33;9.97;;;0.60;99.90;;;;;;5054218;28;20203;-53
2024/01/20 06:38:08;;;;;;;16.37;10.83;;;0.70;99.90;;;;;;5062336;28;20196;-53
2024/01/20 06:40:33;;;;;;;14.60;10.03;;;0.70;99.90;;;;;;5057347;28;20205;-51
2024/01/20 06:42:59;;;;;;;13.37;9.47;;;0.60;99.90;;;;;;5052499;28;20210;-51
2024/01/20 06:45:25;;;;;;;12.77;9.53;;;0.50;99.90;;;;;;5048319;28;20804;-51
2024/01/20 06:47:50;;;;;;;16.00;10.23;;;0.70;99.90;;;;;;5041516;28;20309;-51
2024/01/20 06:50:16;;;;;;;15.03;10.47;;;0.70;99.90;;;;;;5044120;28;20584;-52
2024/01/20 06:52:41;;;;;;;15.17;10.97;;;0.70;99.90;;;;;;5052033;28;20246;-52
2024/01/20 06:55:07;;;;;;;12.90;8.77;;;0.70;99.90;;;;;;5051869;28;20236;-53
2024/01/20 06:57:33;;;;;;;14.30;8.83;;;0.60;99.90;;;;;;5050753;28;20279;-52
2024/01/20 06:59:58;;;;;;;13.50;10.40;;;0.60;99.90;;;;;;5054496;28;20204;-52
2024/01/20 07:02:24;;;;;;;16.43;9.97;;;0.80;99.90;;;;;;5053783;28;20200;-53
2024/01/20 07:04:49;;;;;;;14.63;9.93;;;0.70;99.90;;;;;;5047390;28;20285;-52
2024/01/20 07:07:15;;;;;;;14.63;10.03;;;0.70;99.90;;;;;;5051368;28;20801;-52
2024/01/20 07:09:40;;;;;;;15.20;10.73;;;0.80;99.90;;;;;;5035137;28;20704;-52
2024/01/20 07:12:09;;;;;;;13.73;10.63;;;0.90;99.90;;;;;;5047748;28;20210;-51
2024/01/20 07:14:35;;;;;;;16.77;11.30;;;0.70;99.90;;;;;;5042176;28;20218;-53
2024/01/20 07:17:01;;;;;;;20.17;11.53;;;0.80;99.90;;;;;;5038936;28;20191;-52
2024/01/20 07:19:26;;;;;;;15.30;11.13;;;0.80;99.90;;;;;;5042752;28;20695;-52
2024/01/20 07:21:52;;;;;;;19.30;12.10;;;0.80;99.90;;;;;;5050726;28;20216;-51
2024/01/20 07:24:18;;;;;;;16.00;9.50;;;0.90;99.90;;;;;;5052102;28;20687;-51
2024/01/20 07:26:43;;;;;;;15.70;9.33;;;0.80;99.90;;;;;;5054368;28;20305;-53
2024/01/20 07:29:09;;;;;;;12.67;8.63;;;0.80;99.90;;;;;;5052137;28;20201;-52
2024/01/20 07:31:34;;;;;;;13.33;9.67;;;1.00;99.90;;;;;;5053421;28;20191;-52
2024/01/20 07:34:00;;;;;;;13.80;9.40;;;1.10;99.90;;;;;;5052774;28;20214;-53
2024/01/20 07:36:26;;;;;;;17.50;9.50;;;1.10;99.90;;;;;;5037054;28;20204;-53
2024/01/20 07:38:51;;;;;;;13.57;10.77;;;1.10;99.90;;;;;;5036220;28;20293;-51
2024/01/20 07:41:18;;;;;;;14.13;10.57;;;1.00;99.90;;;;;;5056588;28;20269;-51
2024/01/20 07:43:43;;;;;;;16.43;10.83;;;1.20;99.90;;;;;;5056481;28;20198;-53
2024/01/20 07:46:09;;;;;;;16.40;10.70;;;1.10;99.90;;;;;;5052897;28;20713;-52
2024/01/20 07:48:34;;;;;;;17.57;11.10;;;1.10;99.90;;;;;;5055327;28;20197;-52
2024/01/20 07:51:00;;;;;;;17.67;11.17;;;1.10;99.90;;;;;;5055568;28;20212;-52
2024/01/20 07:53:25;;;;;;;15.83;9.90;;;1.20;99.90;;;;;;5043670;28;20221;-52
2024/01/20 07:55:51;;;;;;;21.97;11.40;;;1.20;99.90;;;;;;5037527;28;20235;-51
2024/01/20 07:58:16;;;;;;;13.50;10.57;;;1.30;99.90;;;;;;5046918;28;20234;-51
2024/01/20 08:00:42;;;;;;;14.37;11.37;;;1.40;99.90;;;;;;5052876;28;20203;-52
2024/01/20 08:03:07;;;;;;;13.33;10.87;;;1.30;99.90;;;;;;5039927;28;20258;-53
2024/01/20 08:05:33;;;;;;;13.70;9.60;;;1.40;99.90;;;;;;5064252;28;20226;-52
2024/01/20 08:07:58;;;;;;;16.37;12.27;;;1.30;99.90;;;;;;5037616;28;20226;-52
2024/01/20 08:10:24;;;;;;;14.63;10.93;;;1.30;99.90;;;;;;5049891;28;20251;-52
2024/01/20 08:12:51;;;;;;;17.57;13.07;;;1.40;99.90;;;;;;5046096;28;20692;-53
2024/01/20 08:15:17;;;;;;;17.80;10.40;;;1.40;99.90;;;;;;5036479;28;20199;-51
2024/01/20 08:17:42;;;;;;;15.13;10.50;;;1.30;99.90;;;;;;5040609;28;20883;-52
2024/01/20 08:20:09;;;;;;;15.30;10.27;;;1.30;99.90;;;;;;5052782;28;20258;-51
2024/01/20 08:22:34;;;;;;;34.03;30.23;;;1.30;99.90;;;;;;5047336;28;20288;-51
2024/01/20 08:25:03;;;;;;;15.47;9.87;;;1.40;99.90;;;;;;5035060;28;20753;-52
2024/01/20 08:27:28;;;;;;;14.53;10.27;;;1.50;99.90;;;;;;5030541;28;20216;-52
2024/01/20 08:29:54;;;;;;;17.00;10.93;;;1.50;99.90;;;;;;5055208;28;20554;-52
2024/01/20 08:32:19;;;;;;;18.57;11.77;;;1.30;99.90;;;;;;5044520;28;20227;-52
2024/01/20 08:34:45;;;;;;;21.37;15.27;;;1.30;99.90;;;;;;5053907;28;20721;-52
2024/01/20 08:37:11;;;;;;;18.93;16.90;;;1.30;99.90;;;;;;5047950;28;20205;-52
2024/01/20 08:39:37;;;;;;;15.50;10.23;;;1.40;99.90;;;;;;5056612;28;20764;-51
2024/01/20 08:42:03;;;;;;;13.93;9.83;;;1.30;99.90;;;;;;5033621;28;20206;-53
2024/01/20 08:44:30;;;;;;;16.30;11.03;;;1.30;99.90;;;;;;5040907;28;20698;-52
2024/01/20 08:46:55;;;;;;;17.10;10.77;;;1.30;99.90;;;;;;5047494;28;20230;-52
2024/01/20 08:49:22;;;;;;;16.07;11.10;;;1.30;99.90;;;;;;5051367;28;20200;-52
2024/01/20 08:51:47;;;;;;;14.67;10.20;;;1.20;99.90;;;;;;5029053;28;20209;-51
2024/01/20 08:54:13;;;;;;;16.77;10.10;;;1.20;99.90;;;;;;5051583;28;20222;-51
2024/01/20 08:56:38;;;;;;;16.30;10.27;;;1.30;99.90;;;;;;5052773;28;20271;-51
2024/01/20 08:59:04;;;;;;;15.53;9.23;;;1.30;99.90;;;;;;5053863;28;20662;-51
2024/01/20 09:01:29;;;;;;;11.40;8.70;;;1.40;99.90;;;;;;5049781;28;20285;-52
2024/01/20 09:03:55;;;;;;;14.90;9.87;;;1.50;99.90;;;;;;5042215;28;20208;-52
2024/01/20 09:06:20;;;;;;;13.97;10.10;;;1.50;99.90;;;;;;5034183;28;20224;-63
2024/01/20 09:08:46;;;;;;;13.07;9.23;;;1.40;99.90;;;;;;5043733;28;20207;-56
2024/01/20 09:11:11;;;;;;;10.80;8.03;;;1.40;99.90;;;;;;5046976;28;20211;-52
2024/01/20 09:13:36;;;;;;;12.67;9.40;;;1.60;99.90;;;;;;5050351;28;20203;-52
2024/01/20 09:16:02;;;;;;;15.20;9.97;;;1.60;99.90;;;;;;5051560;28;20199;-53
2024/01/20 09:18:28;;;;;;;15.13;10.13;;;1.60;99.90;;;;;;5045193;28;20308;-55
2024/01/20 09:20:53;;;;;;;14.30;11.03;;;1.60;99.90;;;;;;5049461;28;20259;-62
2024/01/20 09:23:19;;;;;;;16.40;9.30;;;1.40;99.90;;;;;;5037921;28;20678;-54
2024/01/20 09:25:44;;;;;;;12.73;10.27;;;1.40;99.90;;;;;;5045118;28;20395;-52
2024/01/20 09:28:10;;;;;;;11.93;10.07;;;1.40;99.90;;;;;;5040394;28;20236;-53
2024/01/20 09:30:36;;;;;;;12.23;9.53;;;1.50;99.90;;;;;;5030254;28;20227;-53
2024/01/20 09:33:05;;;;;;;15.03;8.63;;;1.70;99.90;;;;;;5033772;28;20288;-60
2024/01/20 09:35:31;;;;;;;13.77;9.17;;;1.80;99.90;;;;;;5032572;28;20196;-52
2024/01/20 09:37:57;;;;;;;16.23;9.63;;;1.80;99.90;;;;;;5042921;28;20271;-53
2024/01/20 09:40:23;;;;;;;15.50;9.20;;;1.60;99.90;;;;;;5028672;28;20278;-52
2024/01/20 09:42:51;;;;;;;12.77;9.87;;;1.50;99.90;;;;;;5051632;28;20223;-53
2024/01/20 09:45:18;;;;;;;21.97;10.57;;;1.50;99.90;;;;;;5054008;28;20236;-52
2024/01/20 09:47:44;;;;;;;13.40;9.50;;;1.60;99.90;;;;;;5044088;28;20297;-53
2024/01/20 09:50:10;;;;;;;12.33;8.77;;;1.60;99.90;;;;;;5050344;28;20359;-52
2024/01/20 09:52:57;;;;;;;16.17;9.50;;;1.70;99.90;;;;;;5050579;28;20584;-52
2024/01/20 09:55:23;;;;;;;12.10;8.93;;;1.60;99.90;;;;;;5050099;28;20282;-53
2024/01/20 09:57:49;;;;;;;10.17;8.80;;;1.70;99.90;;;;;;5048932;28;20223;-53
2024/01/20 10:00:16;;;;;;;14.50;8.87;;;1.80;99.90;;;;;;5052638;28;20201;-54
2024/01/20 10:02:45;;;;;;;15.27;10.20;;;2.00;99.90;;;;;;5051049;28;20213;-52
2024/01/20 10:05:12;;;;;;;14.93;9.73;;;2.00;99.90;;;;;;5052363;28;20200;-53
2024/01/20 10:07:39;;;;;;;17.60;9.57;;;2.00;99.90;;;;;;5054490;28;20200;-53
2024/01/20 10:10:06;;;;;;;13.83;9.37;;;1.80;99.90;;;;;;5054105;28;20213;-53
2024/01/20 10:12:31;;;;;;;10.70;8.63;;;1.60;99.90;;;;;;5052669;28;20205;-53
2024/01/20 10:14:57;;;;;;;10.67;8.17;;;1.70;99.90;;;;;;5053006;28;20207;-54
2024/01/20 10:17:22;;;;;;;15.00;10.23;;;1.80;99.90;;;;;;5058226;28;20204;-55
2024/01/20 10:19:48;;;;;;;11.83;8.83;;;1.80;99.90;;;;;;5034868;28;20230;-56
2024/01/20 10:22:14;;;;;;;15.37;8.57;;;2.10;99.90;;;;;;5032024;28;20208;-53
2024/01/20 10:24:50;;;;;;;18.07;8.40;;;2.20;99.90;;;;;;5031047;28;20203;-58
2024/01/20 10:27:20;;;;;;;11.47;8.63;;;2.50;99.90;;;;;;5034744;28;20291;-52
2024/01/20 10:29:47;;;;;;;14.03;8.90;;;2.40;99.90;;;;;;5035011;28;20218;-52
2024/01/20 10:32:13;;;;;;;9.10;7.90;;;2.40;99.90;;;;;;5030441;28;20195;-52
2024/01/20 10:34:38;;;;;;;11.77;8.17;;;2.50;99.90;;;;;;5028288;28;20206;-53
2024/01/20 10:37:12;;;;;;;11.10;8.60;;;2.50;99.90;;;;;;5035568;28;20663;-54
2024/01/20 10:39:42;;;;;;;12.90;9.47;;;2.30;99.90;;;;;;5029337;28;20690;-53
2024/01/20 10:42:12;;;;;;;13.47;8.97;;;2.10;99.90;;;;;;5029160;28;20665;-53
2024/01/20 10:44:40;;;;;;;12.53;8.47;;;2.20;99.90;;;;;;5027173;28;20210;-52
2024/01/20 10:47:22;;;;;;;14.87;9.40;;;1.90;99.90;;;;;;5024796;28;20653;-52
2024/01/20 10:49:49;;;;;;;10.93;8.57;;;2.00;99.90;;;;;;5031356;28;20212;-53
2024/01/20 10:52:15;;;;;;;12.50;8.37;;;2.00;99.90;;;;;;5031811;28;20198;-51
2024/01/20 10:54:44;;;;;;;18.13;9.40;;;1.90;99.90;;;;;;5029250;28;20198;-51
2024/01/20 10:57:10;;;;;;;15.40;8.90;;;1.90;99.90;;;;;;5031636;28;20264;-52
2024/01/20 10:59:42;;;;;;;14.87;9.77;;;2.20;99.90;;;;;;5034732;28;20203;-55
2024/01/20 11:02:12;;;;;;;14.90;10.43;;;2.00;99.90;;;;;;5078795;23;20243;-54
2024/01/20 11:04:43;;;;;;;13.47;9.80;;;2.00;99.90;;;;;;5093733;28;20195;-53
2024/01/20 11:07:34;;;;;;;14.03;9.10;;;2.20;99.90;;;;;;5105820;27;20281;-53
2024/01/20 11:10:03;;;;;;;11.60;8.70;;;2.20;99.90;;;;;;5085357;28;20264;-51
2024/01/20 11:12:31;;;;;;;14.10;8.33;;;2.30;99.90;;;;;;5080141;28;20484;-53
2024/01/20 11:14:58;;;;;;;17.77;9.93;;;2.30;99.90;;;;;;5078446;28;20228;-60
2024/01/20 11:17:24;;;;;;;17.27;9.67;;;2.20;99.90;;;;;;5093791;28;20749;-57
2024/01/20 11:19:53;;;;;;;11.33;7.20;;;2.10;99.90;;;;;;5088035;28;20313;-53
2024/01/20 11:22:32;;;;;;;16.93;9.93;;;2.40;99.90;;;;;;5089091;28;20306;-54
2024/01/20 11:25:04;;;;;;;11.00;8.40;;;2.50;99.90;;;;;;5089249;27;20871;-55
2024/01/20 11:27:30;;;;;;;14.07;8.83;;;2.60;99.90;;;;;;5090969;28;20738;-54
2024/01/20 11:30:08;;;;;;;13.07;8.20;;;2.40;99.90;;;;;;5070590;28;20195;-52
2024/01/20 11:32:34;;;;;;;13.43;8.70;;;2.40;99.90;;;;;;5093146;27;20708;-52
2024/01/20 11:35:00;;;;;;;12.67;8.87;;;2.40;99.90;;;;;;5084640;28;20189;-54
2024/01/20 11:37:27;;;;;;;11.17;8.20;;;3.00;99.90;;;;;;5087112;28;20902;-55
2024/01/20 11:40:09;;;;;;;15.40;9.13;;;3.10;99.90;;;;;;5085545;28;20193;-53
2024/01/20 11:42:35;;;;;;;12.20;8.33;;;2.80;99.90;;;;;;5089089;28;20233;-53
2024/01/20 11:45:03;;;;;;;10.73;8.87;;;2.70;99.90;;;;;;5086490;28;20666;-53
2024/01/20 11:47:29;;;;;;;16.67;8.97;;;2.80;99.90;;;;;;5072007;28;20224;-53
2024/01/20 11:49:55;;;;;;;12.97;9.00;;;3.00;99.90;;;;;;5083325;28;20192;-53
2024/01/20 11:52:22;;;;;;;10.77;7.63;;;2.90;99.90;;;;;;5085035;28;20201;-60
2024/01/20 11:54:48;;;;;;;12.60;8.33;;;3.50;99.90;;;;;;5070247;28;20200;-54
2024/01/20 11:57:26;;;;;;;11.33;7.70;;;3.10;99.90;;;;;;5060807;28;20198;-53
2024/01/20 11:59:52;;;;;;;11.13;8.87;;;3.20;99.90;;;;;;5066643;28;20748;-53
2024/01/20 12:02:18;;;;;;;12.57;7.67;;;3.40;99.90;;;;;;5066950;28;20249;-54
2024/01/20 12:04:44;;;;;;;10.70;7.30;;;3.40;99.90;;;;;;5066568;28;20205;-52
2024/01/20 12:07:09;;;;;;;12.53;7.47;;;3.40;99.90;;;;;;5063393;28;20791;-51
2024/01/20 12:09:35;;;;;;;10.03;8.40;;;3.20;99.90;;;;;;5068903;28;20683;-52
2024/01/20 12:12:04;;;;;;;8.00;7.20;;;3.60;99.90;;;;;;5066715;28;20196;-54
2024/01/20 12:14:29;;;;;;;17.03;7.30;;;3.30;99.90;;;;;;5042332;28;20197;-55
2024/01/20 12:16:56;;;;;;;13.57;8.00;;;3.50;99.90;;;;;;5064783;28;20255;-52
2024/01/20 12:19:21;;;;;;;13.43;8.10;;;3.30;99.90;;;;;;5063563;28;20389;-52
2024/01/20 12:21:47;;;;;;;10.67;7.63;;;3.40;99.90;;;;;;5069490;28;20922;-55
2024/01/20 12:24:13;;;;;;;10.33;7.70;;;3.20;99.90;;;;;;5062709;28;20190;-52
2024/01/20 12:26:40;;;;;;;10.23;6.67;;;3.30;99.90;;;;;;5065575;28;20217;-59
2024/01/20 12:29:06;;;;;;;13.40;8.63;;;3.40;99.90;;;;;;5065251;28;20227;-52
2024/01/20 12:31:32;;;;;;;12.07;6.57;;;3.60;99.90;;;;;;5069351;28;20212;-53
2024/01/20 12:33:57;;;;;;;11.87;6.57;;;3.70;99.90;;;;;;5066595;28;20193;-53
2024/01/20 12:36:23;;;;;;;9.93;6.70;;;4.40;99.90;;;;;;5067931;28;20573;-53
2024/01/20 12:38:48;;;;;;;10.07;6.73;;;3.90;99.90;;;;;;5061795;28;20194;-53
2024/01/20 12:41:15;;;;;;;12.57;6.90;;;4.00;99.90;;;;;;5071503;28;20250;-52